createdAt,value
2022-09-03T00:02:02.794Z,100167.63
2022-09-03T00:07:22.361Z,100159.91
2022-09-03T00:12:40.515Z,100173.44
2022-09-03T00:17:55.509Z,100164.06
2022-09-03T00:23:04.160Z,100158.66
2022-09-03T00:28:25.815Z,100165.38
2022-09-03T00:33:33.174Z,100166.31
2022-09-03T00:38:38.567Z,100161.22
2022-09-03T00:44:11.503Z,100163.19
2022-09-03T00:49:51.039Z,100170.47
2022-09-03T00:55:11.218Z,100165.69
2022-09-03T01:00:20.747Z,100164.56
2022-09-03T01:05:57.426Z,100174.13
2022-09-03T01:11:50.224Z,100177.72
2022-09-03T01:17:21.169Z,100169.97
2022-09-03T01:23:00.959Z,100191.84
2022-09-03T01:28:22.675Z,100188.88
2022-09-03T01:33:44.524Z,100191.28
2022-09-03T01:39:06.559Z,100195.50
2022-09-03T01:44:09.916Z,100194.00
2022-09-03T01:49:51.400Z,100192.25
2022-09-03T01:55:11.081Z,100201.59
2022-09-03T02:00:20.679Z,100207.00
2022-09-03T02:05:27.532Z,100209.38
2022-09-03T02:10:44.356Z,100207.22
2022-09-03T02:15:52.934Z,100194.09
2022-09-03T02:20:56.873Z,100206.22
2022-09-03T02:26:03.851Z,100205.59
2022-09-03T02:31:07.415Z,100201.44
2022-09-03T02:36:15.363Z,100211.09
2022-09-03T02:41:18.449Z,100196.47
2022-09-03T02:46:35.899Z,100211.44
2022-09-03T02:51:45.167Z,100211.81
2022-09-03T02:56:49.937Z,100207.81
2022-09-03T03:01:52.896Z,100211.69
2022-09-03T03:06:56.065Z,100211.19
2022-09-03T03:11:58.956Z,100203.72
2022-09-03T03:17:01.860Z,100207.78
2022-09-03T03:22:04.826Z,100206.28
2022-09-03T03:27:10.843Z,100216.09
2022-09-03T03:32:13.672Z,100214.09
2022-09-03T03:37:16.638Z,100224.28
2022-09-03T03:42:19.517Z,100223.16
2022-09-03T03:47:22.414Z,100229.81
2022-09-03T03:52:27.179Z,100235.47
2022-09-03T03:57:32.484Z,100238.50
2022-09-03T04:02:39.055Z,100231.03
2022-09-03T04:07:42.210Z,100239.53
2022-09-03T04:12:45.077Z,100258.34
2022-09-03T04:17:47.794Z,100250.34
2022-09-03T04:22:52.051Z,100262.00
2022-09-03T04:27:55.180Z,100255.50
2022-09-03T04:33:00.602Z,100259.66
2022-09-03T04:38:04.415Z,100244.66
2022-09-03T04:43:07.321Z,100251.75
2022-09-03T04:48:12.071Z,100261.38
2022-09-03T04:53:15.136Z,100265.16
2022-09-03T04:58:18.124Z,100273.41
2022-09-03T05:03:22.299Z,100266.34
2022-09-03T05:08:26.597Z,100260.59
2022-09-03T05:13:29.907Z,100260.09
2022-09-03T05:18:33.817Z,100256.84
2022-09-03T05:23:43.277Z,100267.81
2022-09-03T05:28:47.531Z,100273.38
2022-09-03T05:33:53.692Z,100266.22
2022-09-03T05:39:01.059Z,100268.13
2022-09-03T05:44:06.270Z,100259.56
2022-09-03T05:49:09.212Z,100271.31
2022-09-03T05:54:12.215Z,100264.28
2022-09-03T05:59:15.274Z,100267.75
2022-09-03T06:04:19.093Z,100261.72
2022-09-03T06:09:23.321Z,100262.88
2022-09-03T06:14:26.897Z,100268.19
2022-09-03T06:19:29.687Z,100270.81
2022-09-03T06:24:32.459Z,100258.66
2022-09-03T06:29:36.389Z,100254.91
2022-09-03T06:34:39.803Z,100252.81
2022-09-03T06:39:42.666Z,100258.28
2022-09-03T06:44:45.594Z,100246.66
2022-09-03T06:49:48.422Z,100243.50
2022-09-03T06:54:51.619Z,100247.06
2022-09-03T06:59:55.492Z,100233.09
2022-09-03T07:04:58.534Z,100245.91
2022-09-03T07:10:02.102Z,100242.84
2022-09-03T07:15:05.432Z,100237.28
2022-09-03T07:20:08.582Z,100235.78
2022-09-03T07:25:12.294Z,100236.72
2022-09-03T07:30:15.251Z,100235.81
2022-09-03T07:35:19.796Z,100232.78
2022-09-03T07:40:24.627Z,100231.91
2022-09-03T07:45:28.609Z,100219.66
2022-09-03T07:50:37.832Z,100209.63
2022-09-03T07:55:40.758Z,100207.38
2022-09-03T08:00:44.001Z,100220.69
2022-09-03T08:05:48.212Z,100211.13
2022-09-03T08:10:51.087Z,100227.09
2022-09-03T08:15:56.273Z,100228.50
2022-09-03T08:21:00.616Z,100227.56
2022-09-03T08:26:03.768Z,100216.66
2022-09-03T08:31:17.147Z,100220.06
2022-09-03T08:36:31.650Z,100215.47
2022-09-03T08:41:50.879Z,100211.97
2022-09-03T08:47:20.788Z,100210.91
2022-09-03T08:52:32.634Z,100195.16
2022-09-03T08:57:46.159Z,100194.22
2022-09-03T09:03:30.514Z,100198.28
2022-09-03T09:09:08.382Z,100199.22
2022-09-03T09:14:52.025Z,100194.16
2022-09-03T09:20:38.735Z,100183.63
2022-09-03T09:25:50.672Z,100177.81
2022-09-03T09:30:57.535Z,100181.16
2022-09-03T09:36:19.528Z,100183.50
2022-09-03T09:41:27.601Z,100177.50
2022-09-03T09:46:40.135Z,100178.56
2022-09-03T09:51:43.236Z,100179.56
2022-09-03T09:56:58.431Z,100183.50
2022-09-03T10:02:28.165Z,100177.03
2022-09-03T10:07:33.221Z,100162.94
2022-09-03T10:12:45.799Z,100162.78
2022-09-03T10:18:11.012Z,100176.44
2022-09-03T10:23:19.072Z,100166.94
2022-09-03T10:28:31.665Z,100170.84
2022-09-03T10:34:01.909Z,100172.03
2022-09-03T10:39:43.157Z,100171.09
